sensor_id;sensor_type;location;lat;lon;timestamp;temperature;humidity
70826;SHT31;58446;41.490;22.098;2023-04-01T00:02:21;13.99;55.04
70826;SHT31;58446;41.490;22.098;2023-04-01T00:04:47;14.05;55.25
70826;SHT31;58446;41.490;22.098;2023-04-01T00:07:12;14.01;55.29
70826;SHT31;58446;41.490;22.098;2023-04-01T00:09:38;14.02;55.35
70826;SHT31;58446;41.490;22.098;2023-04-01T00:12:04;14.05;55.28
70826;SHT31;58446;41.490;22.098;2023-04-01T00:14:30;14.09;55.42
70826;SHT31;58446;41.490;22.098;2023-04-01T00:16:55;14.12;55.41
70826;SHT31;58446;41.490;22.098;2023-04-01T00:19:22;14.13;55.17
70826;SHT31;58446;41.490;22.098;2023-04-01T00:21:47;14.06;55.40
70826;SHT31;58446;41.490;22.098;2023-04-01T00:24:13;14.10;55.45
70826;SHT31;58446;41.490;22.098;2023-04-01T00:26:39;14.10;55.78
70826;SHT31;58446;41.490;22.098;2023-04-01T00:29:07;14.10;55.99
70826;SHT31;58446;41.490;22.098;2023-04-01T00:31:33;14.10;56.18
70826;SHT31;58446;41.490;22.098;2023-04-01T00:33:59;14.04;56.61
70826;SHT31;58446;41.490;22.098;2023-04-01T00:36:25;14.06;56.53
70826;SHT31;58446;41.490;22.098;2023-04-01T00:38:51;14.13;56.46
70826;SHT31;58446;41.490;22.098;2023-04-01T00:41:18;14.17;56.41
70826;SHT31;58446;41.490;22.098;2023-04-01T00:43:48;14.08;56.70
70826;SHT31;58446;41.490;22.098;2023-04-01T00:46:14;14.08;56.78
70826;SHT31;58446;41.490;22.098;2023-04-01T00:48:51;14.06;56.76
70826;SHT31;58446;41.490;22.098;2023-04-01T00:51:27;14.04;57.14
70826;SHT31;58446;41.490;22.098;2023-04-01T00:53:57;14.05;57.04
70826;SHT31;58446;41.490;22.098;2023-04-01T00:56:32;14.06;57.04
70826;SHT31;58446;41.490;22.098;2023-04-01T00:59:03;14.09;57.03
70826;SHT31;58446;41.490;22.098;2023-04-01T01:01:30;14.05;57.37
70826;SHT31;58446;41.490;22.098;2023-04-01T01:03:57;14.01;57.73
70826;SHT31;58446;41.490;22.098;2023-04-01T01:20:24;13.89;58.55
70826;SHT31;58446;41.490;22.098;2023-04-01T01:23:06;13.94;58.60
70826;SHT31;58446;41.490;22.098;2023-04-01T01:28:31;13.92;58.99
70826;SHT31;58446;41.490;22.098;2023-04-01T01:31:23;13.94;59.19
70826;SHT31;58446;41.490;22.098;2023-04-01T01:33:55;13.96;59.11
70826;SHT31;58446;41.490;22.098;2023-04-01T01:36:26;13.95;59.34
70826;SHT31;58446;41.490;22.098;2023-04-01T01:38:55;13.92;59.77
70826;SHT31;58446;41.490;22.098;2023-04-01T01:41:23;13.89;59.94
70826;SHT31;58446;41.490;22.098;2023-04-01T01:43:53;13.88;60.02
70826;SHT31;58446;41.490;22.098;2023-04-01T01:46:23;13.83;60.28
70826;SHT31;58446;41.490;22.098;2023-04-01T01:48:49;13.86;60.38
70826;SHT31;58446;41.490;22.098;2023-04-01T01:51:17;13.85;60.59
70826;SHT31;58446;41.490;22.098;2023-04-01T01:53:44;13.82;60.85
70826;SHT31;58446;41.490;22.098;2023-04-01T01:56:11;13.81;61.05
70826;SHT31;58446;41.490;22.098;2023-04-01T01:58:41;13.82;61.01
70826;SHT31;58446;41.490;22.098;2023-04-01T02:01:17;13.83;60.89
70826;SHT31;58446;41.490;22.098;2023-04-01T02:03:45;13.83;60.88
70826;SHT31;58446;41.490;22.098;2023-04-01T02:06:17;13.85;60.87
70826;SHT31;58446;41.490;22.098;2023-04-01T02:08:45;13.86;60.94
70826;SHT31;58446;41.490;22.098;2023-04-01T02:11:15;13.85;60.93
70826;SHT31;58446;41.490;22.098;2023-04-01T02:16:47;13.92;60.57
70826;SHT31;58446;41.490;22.098;2023-04-01T02:19:16;13.99;60.39
70826;SHT31;58446;41.490;22.098;2023-04-01T02:21:50;13.98;60.11
70826;SHT31;58446;41.490;22.098;2023-04-01T02:24:17;13.99;60.24
70826;SHT31;58446;41.490;22.098;2023-04-01T02:26:46;13.98;60.43
70826;SHT31;58446;41.490;22.098;2023-04-01T02:29:13;13.99;60.39
70826;SHT31;58446;41.490;22.098;2023-04-01T02:31:39;13.96;60.39
70826;SHT31;58446;41.490;22.098;2023-04-01T02:34:05;13.96;60.44
70826;SHT31;58446;41.490;22.098;2023-04-01T02:36:32;13.98;60.35
70826;SHT31;58446;41.490;22.098;2023-04-01T02:38:58;13.96;60.53
70826;SHT31;58446;41.490;22.098;2023-04-01T02:41:29;13.99;60.37
70826;SHT31;58446;41.490;22.098;2023-04-01T02:43:55;13.95;60.75
70826;SHT31;58446;41.490;22.098;2023-04-01T02:46:22;13.92;60.89
70826;SHT31;58446;41.490;22.098;2023-04-01T02:48:48;13.89;61.10
70826;SHT31;58446;41.490;22.098;2023-04-01T02:51:13;13.94;61.15
70826;SHT31;58446;41.490;22.098;2023-04-01T02:53:39;13.89;61.15
70826;SHT31;58446;41.490;22.098;2023-04-01T02:56:05;13.86;61.23
70826;SHT31;58446;41.490;22.098;2023-04-01T02:58:31;13.86;61.35
70826;SHT31;58446;41.490;22.098;2023-04-01T03:00:56;13.82;61.40
70826;SHT31;58446;41.490;22.098;2023-04-01T03:03:23;13.81;61.56
70826;SHT31;58446;41.490;22.098;2023-04-01T03:05:48;13.79;61.84
70826;SHT31;58446;41.490;22.098;2023-04-01T03:08:14;13.78;61.85
70826;SHT31;58446;41.490;22.098;2023-04-01T03:10:40;13.78;61.63
70826;SHT31;58446;41.490;22.098;2023-04-01T03:13:06;13.83;61.52
70826;SHT31;58446;41.490;22.098;2023-04-01T03:15:31;13.81;61.68
70826;SHT31;58446;41.490;22.098;2023-04-01T03:17:57;13.81;61.93
70826;SHT31;58446;41.490;22.098;2023-04-01T03:20:23;13.79;61.98
70826;SHT31;58446;41.490;22.098;2023-04-01T03:22:49;13.78;62.05
70826;SHT31;58446;41.490;22.098;2023-04-01T03:25:14;13.79;62.20
70826;SHT31;58446;41.490;22.098;2023-04-01T03:27:40;13.79;62.20
70826;SHT31;58446;41.490;22.098;2023-04-01T03:30:06;13.74;62.11
70826;SHT31;58446;41.490;22.098;2023-04-01T03:32:33;13.85;61.75
70826;SHT31;58446;41.490;22.098;2023-04-01T03:34:58;13.90;61.71
70826;SHT31;58446;41.490;22.098;2023-04-01T03:37:24;13.88;61.69
70826;SHT31;58446;41.490;22.098;2023-04-01T03:39:50;13.83;61.75
70826;SHT31;58446;41.490;22.098;2023-04-01T03:42:16;13.88;61.75
70826;SHT31;58446;41.490;22.098;2023-04-01T03:44:42;13.90;61.56
70826;SHT31;58446;41.490;22.098;2023-04-01T03:47:07;13.83;61.87
70826;SHT31;58446;41.490;22.098;2023-04-01T03:49:34;13.81;62.05
70826;SHT31;58446;41.490;22.098;2023-04-01T03:52:00;13.79;62.21
70826;SHT31;58446;41.490;22.098;2023-04-01T03:54:26;13.81;62.39
70826;SHT31;58446;41.490;22.098;2023-04-01T03:56:51;13.74;62.52
70826;SHT31;58446;41.490;22.098;2023-04-01T03:59:17;13.71;62.74
70826;SHT31;58446;41.490;22.098;2023-04-01T04:01:43;13.78;62.52
70826;SHT31;58446;41.490;22.098;2023-04-01T04:04:11;13.75;62.78
70826;SHT31;58446;41.490;22.098;2023-04-01T04:06:38;13.71;62.94
70826;SHT31;58446;41.490;22.098;2023-04-01T04:09:03;13.71;62.99
70826;SHT31;58446;41.490;22.098;2023-04-01T04:11:30;13.67;62.98
70826;SHT31;58446;41.490;22.098;2023-04-01T04:13:57;13.65;63.22
70826;SHT31;58446;41.490;22.098;2023-04-01T04:16:22;13.65;62.90
70826;SHT31;58446;41.490;22.098;2023-04-01T04:18:48;13.67;62.84
70826;SHT31;58446;41.490;22.098;2023-04-01T04:21:15;13.64;62.92
70826;SHT31;58446;41.490;22.098;2023-04-01T04:23:41;13.65;62.87
70826;SHT31;58446;41.490;22.098;2023-04-01T04:26:09;13.71;62.76
70826;SHT31;58446;41.490;22.098;2023-04-01T04:28:35;13.74;62.08
70826;SHT31;58446;41.490;22.098;2023-04-01T04:31:01;13.74;62.16
70826;SHT31;58446;41.490;22.098;2023-04-01T04:33:27;13.72;62.33
70826;SHT31;58446;41.490;22.098;2023-04-01T04:35:58;13.67;62.56
70826;SHT31;58446;41.490;22.098;2023-04-01T04:38:24;13.65;62.71
70826;SHT31;58446;41.490;22.098;2023-04-01T04:40:50;13.59;62.79
70826;SHT31;58446;41.490;22.098;2023-04-01T04:43:17;13.59;62.71
70826;SHT31;58446;41.490;22.098;2023-04-01T04:45:42;13.59;62.68
70826;SHT31;58446;41.490;22.098;2023-04-01T04:48:09;13.62;62.68
70826;SHT31;58446;41.490;22.098;2023-04-01T04:50:35;13.62;62.62
70826;SHT31;58446;41.490;22.098;2023-04-01T04:53:02;13.64;62.86
70826;SHT31;58446;41.490;22.098;2023-04-01T04:55:28;13.67;62.83
70826;SHT31;58446;41.490;22.098;2023-04-01T04:57:53;13.71;62.55
70826;SHT31;58446;41.490;22.098;2023-04-01T05:00:19;13.81;62.21
70826;SHT31;58446;41.490;22.098;2023-04-01T05:02:45;13.95;61.77
70826;SHT31;58446;41.490;22.098;2023-04-01T05:05:10;14.27;60.73
70826;SHT31;58446;41.490;22.098;2023-04-01T05:07:36;14.26;60.86
70826;SHT31;58446;41.490;22.098;2023-04-01T05:10:02;14.57;59.94
70826;SHT31;58446;41.490;22.098;2023-04-01T05:12:28;14.25;60.74
70826;SHT31;58446;41.490;22.098;2023-04-01T05:14:54;13.99;61.48
70826;SHT31;58446;41.490;22.098;2023-04-01T05:17:20;13.98;61.57
70826;SHT31;58446;41.490;22.098;2023-04-01T05:19:45;15.17;58.38
70826;SHT31;58446;41.490;22.098;2023-04-01T05:22:11;15.48;56.77
70826;SHT31;58446;41.490;22.098;2023-04-01T05:24:37;15.67;56.75
70826;SHT31;58446;41.490;22.098;2023-04-01T05:27:02;15.83;56.02
70826;SHT31;58446;41.490;22.098;2023-04-01T05:29:28;15.53;57.15
70826;SHT31;58446;41.490;22.098;2023-04-01T05:31:53;15.79;56.37
70826;SHT31;58446;41.490;22.098;2023-04-01T05:34:19;16.04;55.83
70826;SHT31;58446;41.490;22.098;2023-04-01T05:36:45;16.29;55.24
70826;SHT31;58446;41.490;22.098;2023-04-01T05:39:10;15.97;56.22
70826;SHT31;58446;41.490;22.098;2023-04-01T05:41:37;15.60;57.26
70826;SHT31;58446;41.490;22.098;2023-04-01T05:44:04;15.28;58.09
70826;SHT31;58446;41.490;22.098;2023-04-01T05:46:30;14.98;58.96
70826;SHT31;58446;41.490;22.098;2023-04-01T05:48:55;14.80;59.53
70826;SHT31;58446;41.490;22.098;2023-04-01T05:51:21;15.08;59.12
70826;SHT31;58446;41.490;22.098;2023-04-01T05:53:47;15.17;58.95
70826;SHT31;58446;41.490;22.098;2023-04-01T05:56:12;15.17;58.63
70826;SHT31;58446;41.490;22.098;2023-04-01T05:58:38;15.18;58.70
70826;SHT31;58446;41.490;22.098;2023-04-01T06:01:10;15.24;58.41
70826;SHT31;58446;41.490;22.098;2023-04-01T06:03:36;15.43;58.02
70826;SHT31;58446;41.490;22.098;2023-04-01T06:06:02;15.36;58.15
70826;SHT31;58446;41.490;22.098;2023-04-01T06:08:30;15.21;58.18
70826;SHT31;58446;41.490;22.098;2023-04-01T06:11:13;15.02;58.61
70826;SHT31;58446;41.490;22.098;2023-04-01T06:16:25;14.92;59.16
70826;SHT31;58446;41.490;22.098;2023-04-01T06:19:18;14.88;59.24
70826;SHT31;58446;41.490;22.098;2023-04-01T06:25:04;14.89;59.14
70826;SHT31;58446;41.490;22.098;2023-04-01T06:28:00;14.89;59.51
70826;SHT31;58446;41.490;22.098;2023-04-01T06:33:35;15.11;58.88
70826;SHT31;58446;41.490;22.098;2023-04-01T06:36:06;15.25;58.85
70826;SHT31;58446;41.490;22.098;2023-04-01T06:44:16;15.27;58.75
70826;SHT31;58446;41.490;22.098;2023-04-01T06:46:48;15.15;58.92
70826;SHT31;58446;41.490;22.098;2023-04-01T06:49:31;15.14;59.03
70826;SHT31;58446;41.490;22.098;2023-04-01T06:54:33;15.12;59.15
70826;SHT31;58446;41.490;22.098;2023-04-01T06:57:50;15.11;59.14
70826;SHT31;58446;41.490;22.098;2023-04-01T06:59:51;15.05;59.29
70826;SHT31;58446;41.490;22.098;2023-04-01T07:02:38;15.05;59.31
70826;SHT31;58446;41.490;22.098;2023-04-01T07:05:05;15.18;59.17
70826;SHT31;58446;41.490;22.098;2023-04-01T07:07:41;15.48;58.56
70826;SHT31;58446;41.490;22.098;2023-04-01T07:10:17;15.45;58.43
70826;SHT31;58446;41.490;22.098;2023-04-01T07:12:51;15.29;58.81
70826;SHT31;58446;41.490;22.098;2023-04-01T07:15:28;15.28;58.44
70826;SHT31;58446;41.490;22.098;2023-04-01T07:18:03;15.29;58.65
70826;SHT31;58446;41.490;22.098;2023-04-01T07:20:36;15.27;59.19
70826;SHT31;58446;41.490;22.098;2023-04-01T07:23:05;15.35;58.51
70826;SHT31;58446;41.490;22.098;2023-04-01T07:25:41;15.34;58.64
70826;SHT31;58446;41.490;22.098;2023-04-01T07:28:14;15.28;58.92
70826;SHT31;58446;41.490;22.098;2023-04-01T07:34:25;15.19;59.64
70826;SHT31;58446;41.490;22.098;2023-04-01T07:37:10;15.24;59.36
70826;SHT31;58446;41.490;22.098;2023-04-01T07:45:40;15.25;59.87
70826;SHT31;58446;41.490;22.098;2023-04-01T08:05:23;16.27;57.87
70826;SHT31;58446;41.490;22.098;2023-04-01T08:10:51;16.40;57.31
70826;SHT31;58446;41.490;22.098;2023-04-01T08:13:35;16.44;57.19
70826;SHT31;58446;41.490;22.098;2023-04-01T08:21:46;17.03;55.64
70826;SHT31;58446;41.490;22.098;2023-04-01T08:24:41;17.13;55.55
70826;SHT31;58446;41.490;22.098;2023-04-01T08:27:16;17.19;55.41
70826;SHT31;58446;41.490;22.098;2023-04-01T08:29:49;17.19;55.09
70826;SHT31;58446;41.490;22.098;2023-04-01T08:32:37;17.33;54.57
70826;SHT31;58446;41.490;22.098;2023-04-01T08:38:04;17.51;53.87
70826;SHT31;58446;41.490;22.098;2023-04-01T08:46:26;17.75;53.18
70826;SHT31;58446;41.490;22.098;2023-04-01T09:05:36;17.97;52.67
70826;SHT31;58446;41.490;22.098;2023-04-01T09:08:10;17.88;52.79
70826;SHT31;58446;41.490;22.098;2023-04-01T09:27:57;18.52;51.93
70826;SHT31;58446;41.490;22.098;2023-04-01T09:33:22;18.06;53.01
70826;SHT31;58446;41.490;22.098;2023-04-01T09:39:26;18.29;52.77
70826;SHT31;58446;41.490;22.098;2023-04-01T09:44:36;18.36;51.87
70826;SHT31;58446;41.490;22.098;2023-04-01T10:23:27;18.49;52.28
70826;SHT31;58446;41.490;22.098;2023-04-01T10:29:22;18.29;52.69
70826;SHT31;58446;41.490;22.098;2023-04-01T10:52:20;18.36;52.29
70826;SHT31;58446;41.490;22.098;2023-04-01T11:04:02;18.24;52.72
70826;SHT31;58446;41.490;22.098;2023-04-01T11:07:12;18.24;53.41
70826;SHT31;58446;41.490;22.098;2023-04-01T11:13:00;18.10;57.02
70826;SHT31;58446;41.490;22.098;2023-04-01T11:16:06;17.98;57.38
70826;SHT31;58446;41.490;22.098;2023-04-01T11:22:10;17.77;57.79
70826;SHT31;58446;41.490;22.098;2023-04-01T11:32:43;18.08;59.90
70826;SHT31;58446;41.490;22.098;2023-04-01T11:38:12;18.01;58.90
70826;SHT31;58446;41.490;22.098;2023-04-01T11:40:47;17.98;59.71
70826;SHT31;58446;41.490;22.098;2023-04-01T11:43:26;17.94;62.54
70826;SHT31;58446;41.490;22.098;2023-04-01T11:46:04;17.92;61.86
70826;SHT31;58446;41.490;22.098;2023-04-01T11:48:40;17.87;61.41
70826;SHT31;58446;41.490;22.098;2023-04-01T11:56:52;17.94;61.03
70826;SHT31;58446;41.490;22.098;2023-04-01T12:02:20;18.01;59.59
70826;SHT31;58446;41.490;22.098;2023-04-01T12:10:21;17.92;58.25
70826;SHT31;58446;41.490;22.098;2023-04-01T12:13:14;17.91;57.64
70826;SHT31;58446;41.490;22.098;2023-04-01T12:18:46;17.88;56.93
70826;SHT31;58446;41.490;22.098;2023-04-01T12:29:42;17.98;55.80
70826;SHT31;58446;41.490;22.098;2023-04-01T12:32:20;17.97;55.60
70826;SHT31;58446;41.490;22.098;2023-04-01T12:38:10;18.05;54.97
70826;SHT31;58446;41.490;22.098;2023-04-01T12:54:57;18.33;53.39
70826;SHT31;58446;41.490;22.098;2023-04-01T12:57:49;18.33;53.20
70826;SHT31;58446;41.490;22.098;2023-04-01T13:00:33;18.33;53.21
70826;SHT31;58446;41.490;22.098;2023-04-01T13:12:29;18.60;51.41
70826;SHT31;58446;41.490;22.098;2023-04-01T13:15:20;18.81;50.93
70826;SHT31;58446;41.490;22.098;2023-04-01T13:28:20;18.81;49.60
70826;SHT31;58446;41.490;22.098;2023-04-01T13:34:08;18.69;49.41
70826;SHT31;58446;41.490;22.098;2023-04-01T13:36:56;18.57;49.81
70826;SHT31;58446;41.490;22.098;2023-04-01T13:42:08;18.42;51.16
70826;SHT31;58446;41.490;22.098;2023-04-01T13:44:49;18.30;52.35
70826;SHT31;58446;41.490;22.098;2023-04-01T13:47:27;18.18;53.95
70826;SHT31;58446;41.490;22.098;2023-04-01T13:50:07;17.99;56.40
70826;SHT31;58446;41.490;22.098;2023-04-01T13:53:06;17.85;56.59
70826;SHT31;58446;41.490;22.098;2023-04-01T14:01:10;17.53;60.39
70826;SHT31;58446;41.490;22.098;2023-04-01T14:20:29;17.61;56.32
70826;SHT31;58446;41.490;22.098;2023-04-01T14:31:51;18.08;53.13
70826;SHT31;58446;41.490;22.098;2023-04-01T14:34:47;18.12;51.81
70826;SHT31;58446;41.490;22.098;2023-04-01T14:43:24;18.28;49.22
70826;SHT31;58446;41.490;22.098;2023-04-01T14:54:17;18.46;46.98
70826;SHT31;58446;41.490;22.098;2023-04-01T14:57:46;18.38;47.20
70826;SHT31;58446;41.490;22.098;2023-04-01T15:00:00;18.22;47.06
70826;SHT31;58446;41.490;22.098;2023-04-01T15:02:55;18.16;47.10
70826;SHT31;58446;41.490;22.098;2023-04-01T15:08:29;18.09;47.24
70826;SHT31;58446;41.490;22.098;2023-04-01T15:11:20;18.10;47.16
70826;SHT31;58446;41.490;22.098;2023-04-01T15:22:46;18.04;47.42
70826;SHT31;58446;41.490;22.098;2023-04-01T15:25:28;18.02;47.35
70826;SHT31;58446;41.490;22.098;2023-04-01T15:30:39;17.95;47.21
70826;SHT31;58446;41.490;22.098;2023-04-01T15:39:13;17.91;46.86
70826;SHT31;58446;41.490;22.098;2023-04-01T15:50:29;17.92;46.48
70826;SHT31;58446;41.490;22.098;2023-04-01T15:53:02;17.97;46.02
70826;SHT31;58446;41.490;22.098;2023-04-01T15:55:55;18.02;45.93
70826;SHT31;58446;41.490;22.098;2023-04-01T15:58:44;18.08;45.08
70826;SHT31;58446;41.490;22.098;2023-04-01T16:01:27;18.09;45.10
70826;SHT31;58446;41.490;22.098;2023-04-01T16:04:23;18.10;45.93
70826;SHT31;58446;41.490;22.098;2023-04-01T16:07:11;18.12;45.78
70826;SHT31;58446;41.490;22.098;2023-04-01T16:09:56;18.12;46.08
70826;SHT31;58446;41.490;22.098;2023-04-01T16:18:32;18.13;45.81
70826;SHT31;58446;41.490;22.098;2023-04-01T16:21:05;18.15;45.56
70826;SHT31;58446;41.490;22.098;2023-04-01T16:23:46;18.13;45.61
70826;SHT31;58446;41.490;22.098;2023-04-01T16:26:25;18.08;45.68
70826;SHT31;58446;41.490;22.098;2023-04-01T16:29:40;18.08;45.66
70826;SHT31;58446;41.490;22.098;2023-04-01T16:38:36;17.98;44.95
70826;SHT31;58446;41.490;22.098;2023-04-01T16:41:24;17.98;44.39
70826;SHT31;58446;41.490;22.098;2023-04-01T16:44:17;17.91;43.78
70826;SHT31;58446;41.490;22.098;2023-04-01T16:46:46;17.94;43.82
70826;SHT31;58446;41.490;22.098;2023-04-01T16:59:57;17.71;42.45
70826;SHT31;58446;41.490;22.098;2023-04-01T17:02:38;17.70;43.11
70826;SHT31;58446;41.490;22.098;2023-04-01T17:05:12;17.67;43.13
70826;SHT31;58446;41.490;22.098;2023-04-01T17:07:43;17.61;42.84
70826;SHT31;58446;41.490;22.098;2023-04-01T17:10:18;17.57;42.53
70826;SHT31;58446;41.490;22.098;2023-04-01T17:15:43;17.46;43.38
70826;SHT31;58446;41.490;22.098;2023-04-01T17:30:01;17.34;43.07
70826;SHT31;58446;41.490;22.098;2023-04-01T17:33:06;17.30;43.00
70826;SHT31;58446;41.490;22.098;2023-04-01T17:36:09;17.23;43.01
70826;SHT31;58446;41.490;22.098;2023-04-01T17:38:45;17.26;43.04
70826;SHT31;58446;41.490;22.098;2023-04-01T17:41:32;17.19;42.51
70826;SHT31;58446;41.490;22.098;2023-04-01T17:44:12;17.20;43.17
70826;SHT31;58446;41.490;22.098;2023-04-01T17:49:27;17.15;43.00
70826;SHT31;58446;41.490;22.098;2023-04-01T17:52:00;17.13;43.11
70826;SHT31;58446;41.490;22.098;2023-04-01T17:54:43;17.07;42.67
70826;SHT31;58446;41.490;22.098;2023-04-01T18:00:52;17.06;42.61
70826;SHT31;58446;41.490;22.098;2023-04-01T18:09:21;16.99;43.03
70826;SHT31;58446;41.490;22.098;2023-04-01T18:17:25;16.93;43.42
70826;SHT31;58446;41.490;22.098;2023-04-01T18:20:03;16.90;43.25
70826;SHT31;58446;41.490;22.098;2023-04-01T18:22:44;16.76;43.27
70826;SHT31;58446;41.490;22.098;2023-04-01T18:25:21;16.61;43.96
70826;SHT31;58446;41.490;22.098;2023-04-01T18:28:08;16.51;44.36
70826;SHT31;58446;41.490;22.098;2023-04-01T18:30:35;16.47;44.43
70826;SHT31;58446;41.490;22.098;2023-04-01T18:44:29;16.21;45.91
70826;SHT31;58446;41.490;22.098;2023-04-01T18:52:42;16.32;46.45
70826;SHT31;58446;41.490;22.098;2023-04-01T19:01:05;16.14;48.06
70826;SHT31;58446;41.490;22.098;2023-04-01T19:03:48;16.17;48.08
70826;SHT31;58446;41.490;22.098;2023-04-01T19:06:28;16.11;48.97
70826;SHT31;58446;41.490;22.098;2023-04-01T19:08:54;16.07;48.88
70826;SHT31;58446;41.490;22.098;2023-04-01T19:11:35;16.07;49.26
70826;SHT31;58446;41.490;22.098;2023-04-01T19:17:22;15.91;49.66
70826;SHT31;58446;41.490;22.098;2023-04-01T19:25:12;16.00;50.25
70826;SHT31;58446;41.490;22.098;2023-04-01T19:27:50;15.89;50.25
70826;SHT31;58446;41.490;22.098;2023-04-01T19:30:19;15.73;51.05
70826;SHT31;58446;41.490;22.098;2023-04-01T19:35:59;15.49;52.20
70826;SHT31;58446;41.490;22.098;2023-04-01T19:38:40;15.52;51.86
70826;SHT31;58446;41.490;22.098;2023-04-01T19:44:53;15.52;52.09
70826;SHT31;58446;41.490;22.098;2023-04-01T19:46:55;15.55;52.17
70826;SHT31;58446;41.490;22.098;2023-04-01T19:52:38;15.39;52.91
70826;SHT31;58446;41.490;22.098;2023-04-01T20:00:48;15.25;53.29
70826;SHT31;58446;41.490;22.098;2023-04-01T20:06:08;15.32;53.19
70826;SHT31;58446;41.490;22.098;2023-04-01T20:08:58;15.28;53.38
70826;SHT31;58446;41.490;22.098;2023-04-01T20:11:38;15.17;53.87
70826;SHT31;58446;41.490;22.098;2023-04-01T20:14:22;15.04;54.07
70826;SHT31;58446;41.490;22.098;2023-04-01T20:17:00;14.84;54.87
70826;SHT31;58446;41.490;22.098;2023-04-01T20:25:26;14.94;54.85
70826;SHT31;58446;41.490;22.098;2023-04-01T20:31:08;14.50;56.11
70826;SHT31;58446;41.490;22.098;2023-04-01T20:50:29;14.59;56.15
70826;SHT31;58446;41.490;22.098;2023-04-01T20:53:05;14.40;56.96
70826;SHT31;58446;41.490;22.098;2023-04-01T21:01:40;14.34;57.07
70826;SHT31;58446;41.490;22.098;2023-04-01T21:09:24;14.73;55.59
70826;SHT31;58446;41.490;22.098;2023-04-01T21:15:03;14.77;55.32
70826;SHT31;58446;41.490;22.098;2023-04-01T21:28:39;14.22;56.41
70826;SHT31;58446;41.490;22.098;2023-04-01T21:52:19;14.61;55.11
70826;SHT31;58446;41.490;22.098;2023-04-01T22:05:04;14.50;55.15
70826;SHT31;58446;41.490;22.098;2023-04-01T22:07:47;14.41;55.55
70826;SHT31;58446;41.490;22.098;2023-04-01T22:15:59;14.36;55.84
70826;SHT31;58446;41.490;22.098;2023-04-01T22:21:15;14.29;55.89
70826;SHT31;58446;41.490;22.098;2023-04-01T22:24:11;14.29;55.86
70826;SHT31;58446;41.490;22.098;2023-04-01T22:26:50;14.19;56.28
70826;SHT31;58446;41.490;22.098;2023-04-01T22:32:01;14.10;56.54
70826;SHT31;58446;41.490;22.098;2023-04-01T22:40:00;14.08;56.70
70826;SHT31;58446;41.490;22.098;2023-04-01T22:42:45;14.20;55.87
70826;SHT31;58446;41.490;22.098;2023-04-01T22:48:29;13.48;57.62
70826;SHT31;58446;41.490;22.098;2023-04-01T22:51:07;13.31;58.27
70826;SHT31;58446;41.490;22.098;2023-04-01T22:54:03;12.58;60.03
70826;SHT31;58446;41.490;22.098;2023-04-01T22:56:38;12.82;60.36
70826;SHT31;58446;41.490;22.098;2023-04-01T22:59:18;13.16;59.36
70826;SHT31;58446;41.490;22.098;2023-04-01T23:01:51;13.46;58.48
70826;SHT31;58446;41.490;22.098;2023-04-01T23:04:24;13.79;57.51
70826;SHT31;58446;41.490;22.098;2023-04-01T23:06:57;14.01;56.94
70826;SHT31;58446;41.490;22.098;2023-04-01T23:09:28;13.94;56.80
70826;SHT31;58446;41.490;22.098;2023-04-01T23:11:58;13.88;57.18
70826;SHT31;58446;41.490;22.098;2023-04-01T23:14:39;13.75;57.43
70826;SHT31;58446;41.490;22.098;2023-04-01T23:17:49;12.41;60.29
70826;SHT31;58446;41.490;22.098;2023-04-01T23:20:31;11.90;62.61
70826;SHT31;58446;41.490;22.098;2023-04-01T23:23:25;11.84;63.58
70826;SHT31;58446;41.490;22.098;2023-04-01T23:26:04;12.36;62.20
70826;SHT31;58446;41.490;22.098;2023-04-01T23:28:51;13.00;60.08
70826;SHT31;58446;41.490;22.098;2023-04-01T23:31:38;13.30;59.28
70826;SHT31;58446;41.490;22.098;2023-04-01T23:37:01;13.68;58.03
70826;SHT31;58446;41.490;22.098;2023-04-01T23:39:34;13.75;57.66
70826;SHT31;58446;41.490;22.098;2023-04-01T23:42:40;13.75;57.56
70826;SHT31;58446;41.490;22.098;2023-04-01T23:45:17;13.54;58.25
70826;SHT31;58446;41.490;22.098;2023-04-01T23:47:46;13.51;58.32
70826;SHT31;58446;41.490;22.098;2023-04-01T23:50:20;13.51;58.38
70826;SHT31;58446;41.490;22.098;2023-04-01T23:52:48;13.10;59.74
70826;SHT31;58446;41.490;22.098;2023-04-01T23:55:19;13.24;59.30
70826;SHT31;58446;41.490;22.098;2023-04-01T23:58:18;13.41;58.72
